createdAt,value
2017-07-31T00:02:29.913Z,84.80
2017-07-31T00:05:05.760Z,83.70
2017-07-31T00:07:50.511Z,83.50
2017-07-31T00:10:25.069Z,83.70
2017-07-31T00:13:06.427Z,82.70
2017-07-31T00:15:43.040Z,83.90
2017-07-31T00:18:17.938Z,83.70
2017-07-31T00:20:57.714Z,84.90
2017-07-31T00:23:34.276Z,84.90
2017-07-31T00:26:13.679Z,84.40
2017-07-31T00:28:51.586Z,85.60
2017-07-31T00:31:28.184Z,84.70
2017-07-31T00:34:04.999Z,84.20
2017-07-31T00:36:43.165Z,83.60
2017-07-31T00:39:17.557Z,83.30
2017-07-31T00:44:42.614Z,83.60
2017-07-31T00:47:33.547Z,84.20
2017-07-31T00:50:11.080Z,83.80
2017-07-31T00:52:50.762Z,83.90
2017-07-31T00:55:31.141Z,83.30
2017-07-31T00:58:11.343Z,84.40
2017-07-31T01:00:49.975Z,83.80
2017-07-31T01:03:39.242Z,84.00
2017-07-31T01:06:23.506Z,84.10
2017-07-31T01:09:05.138Z,85.50
2017-07-31T01:12:05.435Z,85.50
2017-07-31T01:14:43.392Z,85.30
2017-07-31T01:20:14.481Z,86.10
2017-07-31T01:25:40.366Z,85.70
2017-07-31T01:28:18.614Z,88.30
2017-07-31T01:30:59.510Z,89.10
2017-07-31T01:33:45.833Z,88.90
2017-07-31T01:39:13.493Z,87.40
2017-07-31T01:41:58.147Z,87.30
2017-07-31T01:44:38.350Z,88.00
2017-07-31T01:47:18.210Z,86.70
2017-07-31T01:49:56.095Z,86.60
2017-07-31T01:52:43.552Z,86.60
2017-07-31T01:55:47.908Z,87.00
2017-07-31T01:58:30.309Z,86.80
2017-07-31T02:03:54.512Z,86.90
2017-07-31T02:06:45.249Z,87.80
2017-07-31T02:09:27.417Z,87.80
2017-07-31T02:14:59.033Z,86.90
2017-07-31T02:17:34.246Z,87.60
2017-07-31T02:20:13.583Z,86.70
2017-07-31T02:22:51.834Z,87.50
2017-07-31T02:25:31.267Z,86.70
2017-07-31T02:31:14.035Z,87.00
2017-07-31T02:33:57.610Z,86.90
2017-07-31T02:39:31.900Z,87.30
2017-07-31T02:42:17.327Z,87.00
2017-07-31T02:50:37.410Z,87.10
2017-07-31T02:53:11.280Z,86.80
2017-07-31T02:59:16.892Z,88.20
2017-07-31T03:01:52.666Z,90.00
2017-07-31T03:04:28.319Z,89.20
2017-07-31T03:07:05.217Z,88.70
2017-07-31T03:09:41.322Z,88.30
2017-07-31T03:12:18.882Z,89.10
2017-07-31T03:14:56.571Z,87.10
2017-07-31T03:17:33.824Z,86.90
2017-07-31T03:20:07.859Z,87.00
2017-07-31T03:22:42.638Z,85.80
2017-07-31T03:25:18.380Z,85.70
2017-07-31T03:27:52.226Z,85.50
2017-07-31T03:30:27.449Z,85.80
2017-07-31T03:33:02.952Z,85.80
2017-07-31T03:35:38.431Z,85.90
2017-07-31T03:38:14.914Z,86.60
2017-07-31T03:40:53.041Z,85.90
2017-07-31T03:43:29.863Z,87.00
2017-07-31T03:46:05.092Z,86.20
2017-07-31T03:48:42.417Z,86.30
2017-07-31T03:51:17.035Z,86.40
2017-07-31T03:53:52.647Z,85.70
2017-07-31T03:56:30.382Z,86.30
2017-07-31T03:59:06.341Z,87.10
2017-07-31T04:01:41.938Z,88.80
2017-07-31T04:04:17.852Z,88.00
2017-07-31T04:06:53.052Z,87.20
2017-07-31T04:09:27.503Z,87.60
2017-07-31T04:12:01.638Z,88.50
2017-07-31T04:14:36.090Z,88.10
2017-07-31T04:17:13.714Z,87.30
2017-07-31T04:19:47.594Z,88.80
2017-07-31T04:22:27.024Z,88.40
2017-07-31T04:25:03.535Z,88.30
2017-07-31T04:27:39.692Z,87.80
2017-07-31T04:30:15.647Z,87.80
2017-07-31T04:32:50.373Z,87.60
2017-07-31T04:35:27.803Z,87.60
2017-07-31T04:38:01.922Z,88.10
2017-07-31T04:40:37.452Z,87.40
2017-07-31T04:43:11.990Z,87.30
2017-07-31T04:45:46.207Z,87.20
2017-07-31T04:48:20.204Z,87.20
2017-07-31T04:50:59.727Z,86.80
2017-07-31T04:53:46.617Z,87.70
2017-07-31T04:56:26.677Z,86.40
2017-07-31T04:59:02.628Z,87.20
2017-07-31T05:01:38.614Z,87.20
2017-07-31T05:04:12.738Z,87.20
2017-07-31T05:06:48.383Z,87.70
2017-07-31T05:09:22.962Z,87.30
2017-07-31T05:11:57.500Z,87.60
2017-07-31T05:14:32.785Z,87.50
2017-07-31T05:17:07.450Z,87.20
2017-07-31T05:19:41.538Z,87.70
2017-07-31T05:22:17.280Z,88.90
2017-07-31T05:24:54.127Z,88.90
2017-07-31T05:27:32.841Z,89.50
2017-07-31T05:30:07.115Z,89.10
2017-07-31T05:32:44.819Z,89.00
2017-07-31T05:35:42.499Z,89.00
2017-07-31T05:41:21.806Z,87.00
2017-07-31T05:52:24.608Z,89.30
2017-07-31T05:55:10.012Z,90.00
2017-07-31T05:57:55.116Z,89.30
2017-07-31T06:00:33.472Z,88.10
2017-07-31T06:03:20.997Z,87.50
2017-07-31T06:05:58.054Z,88.00
2017-07-31T06:08:32.981Z,87.20
2017-07-31T06:11:07.886Z,87.20
2017-07-31T06:13:45.047Z,86.80
2017-07-31T06:16:19.195Z,87.10
2017-07-31T06:18:53.875Z,86.60
2017-07-31T06:21:29.135Z,87.00
2017-07-31T06:27:02.940Z,86.80
2017-07-31T06:29:44.374Z,87.70
2017-07-31T06:32:20.020Z,86.90
2017-07-31T06:34:58.854Z,86.60
2017-07-31T06:37:34.295Z,87.30
2017-07-31T06:40:19.794Z,85.90
2017-07-31T06:43:06.081Z,85.60
2017-07-31T06:45:57.687Z,86.50
2017-07-31T06:48:36.942Z,86.40
2017-07-31T06:51:24.356Z,82.20
2017-07-31T06:57:04.959Z,84.90
2017-07-31T06:59:52.468Z,84.30
2017-07-31T07:02:42.946Z,80.30
2017-07-31T07:05:30.631Z,79.50
2017-07-31T07:08:15.571Z,79.40
2017-07-31T07:11:09.433Z,80.60
2017-07-31T07:13:52.647Z,83.70
2017-07-31T07:16:45.686Z,81.20
2017-07-31T07:19:25.720Z,77.50
2017-07-31T07:22:09.351Z,78.90
2017-07-31T07:25:01.442Z,79.00
2017-07-31T07:27:50.437Z,81.50
2017-07-31T07:30:36.569Z,79.90
2017-07-31T07:33:17.633Z,83.60
2017-07-31T07:38:46.400Z,79.10
2017-07-31T07:41:22.050Z,82.40
2017-07-31T07:44:12.154Z,82.40
2017-07-31T07:46:47.515Z,83.40
2017-07-31T07:49:24.026Z,85.00
2017-07-31T07:52:03.658Z,82.30
2017-07-31T07:54:39.078Z,82.20
2017-07-31T07:57:14.655Z,78.30
2017-07-31T07:59:48.601Z,81.40
2017-07-31T08:02:43.684Z,77.50
2017-07-31T08:05:20.012Z,83.40
2017-07-31T08:07:55.955Z,81.10
2017-07-31T08:10:30.848Z,80.60
2017-07-31T08:13:21.865Z,79.10
2017-07-31T08:18:58.227Z,80.80
2017-07-31T08:24:34.260Z,79.00
2017-07-31T08:27:10.426Z,78.60
2017-07-31T08:29:49.246Z,75.50
2017-07-31T08:32:32.888Z,77.80
2017-07-31T08:35:07.541Z,78.70
2017-07-31T08:37:44.253Z,79.90
2017-07-31T08:40:21.865Z,74.60
2017-07-31T08:43:04.110Z,75.70
2017-07-31T08:48:21.390Z,71.80
2017-07-31T08:50:56.911Z,74.10
2017-07-31T08:53:32.581Z,77.20
2017-07-31T08:56:08.749Z,76.80
2017-07-31T08:58:43.163Z,72.30
2017-07-31T09:01:19.108Z,74.40
2017-07-31T09:03:53.248Z,76.50
2017-07-31T09:06:28.836Z,74.30
2017-07-31T09:09:04.888Z,74.40
2017-07-31T09:11:41.300Z,74.90
2017-07-31T09:14:20.284Z,63.70
2017-07-31T09:16:55.322Z,63.10
2017-07-31T09:19:30.510Z,71.10
2017-07-31T09:22:05.738Z,68.00
2017-07-31T09:24:40.544Z,62.50
2017-07-31T09:27:15.111Z,61.20
2017-07-31T09:29:50.993Z,69.50
2017-07-31T09:32:26.961Z,62.50
2017-07-31T09:35:01.390Z,64.20
2017-07-31T09:37:35.318Z,67.60
2017-07-31T09:40:09.540Z,68.20
2017-07-31T09:42:43.638Z,65.30
2017-07-31T09:45:19.979Z,65.60
2017-07-31T09:47:54.881Z,63.20
2017-07-31T09:50:31.062Z,61.50
2017-07-31T09:53:06.429Z,62.00
2017-07-31T09:55:43.095Z,64.50
2017-07-31T09:58:20.397Z,61.80
2017-07-31T10:00:56.666Z,60.20
2017-07-31T10:03:33.106Z,59.90
2017-07-31T10:06:08.901Z,61.30
2017-07-31T10:08:44.199Z,61.60
2017-07-31T10:11:20.258Z,60.10
2017-07-31T10:13:58.041Z,57.70
2017-07-31T10:16:35.517Z,56.90
2017-07-31T10:19:12.020Z,56.90
2017-07-31T10:21:47.826Z,51.20
2017-07-31T10:24:23.043Z,53.00
2017-07-31T10:26:57.454Z,53.60
2017-07-31T10:29:32.454Z,53.90
2017-07-31T10:32:10.270Z,53.40
2017-07-31T10:34:45.145Z,55.60
2017-07-31T10:37:19.701Z,55.50
2017-07-31T10:39:53.976Z,54.90
2017-07-31T10:42:32.155Z,55.60
2017-07-31T10:45:06.859Z,55.50
2017-07-31T10:47:41.073Z,54.60
2017-07-31T10:50:15.182Z,54.20
2017-07-31T10:52:50.105Z,54.70
2017-07-31T10:55:24.194Z,54.70
2017-07-31T10:58:03.359Z,54.60
2017-07-31T11:00:41.781Z,54.60
2017-07-31T11:03:20.239Z,54.60
2017-07-31T11:05:56.006Z,52.80
2017-07-31T11:08:34.291Z,53.60
2017-07-31T11:11:12.044Z,53.80
2017-07-31T11:13:47.679Z,53.50
2017-07-31T11:16:24.802Z,54.90
2017-07-31T11:18:59.329Z,53.80
2017-07-31T11:21:34.827Z,53.90
2017-07-31T11:24:12.570Z,54.60
2017-07-31T11:26:50.671Z,54.20
2017-07-31T11:29:25.110Z,54.10
2017-07-31T11:32:02.765Z,53.00
2017-07-31T11:34:40.369Z,56.10
2017-07-31T11:37:17.776Z,56.00
2017-07-31T11:39:57.245Z,54.00
2017-07-31T11:42:38.356Z,51.70
2017-07-31T11:45:13.242Z,55.40
2017-07-31T11:47:48.864Z,53.50
2017-07-31T11:50:23.075Z,54.40
2017-07-31T11:52:57.831Z,55.00
2017-07-31T11:55:35.737Z,54.10
2017-07-31T11:58:09.983Z,54.90
2017-07-31T12:00:45.450Z,54.20
2017-07-31T12:03:19.670Z,54.20
2017-07-31T12:05:57.681Z,53.90
2017-07-31T12:08:33.150Z,54.20
2017-07-31T12:11:07.713Z,53.90
2017-07-31T12:13:42.972Z,53.70
2017-07-31T12:16:17.889Z,53.60
2017-07-31T12:18:55.200Z,54.20
2017-07-31T12:21:30.320Z,54.40
2017-07-31T12:24:05.258Z,54.40
2017-07-31T12:26:39.405Z,53.80
2017-07-31T12:29:13.518Z,53.80
2017-07-31T12:31:53.062Z,53.50
2017-07-31T12:34:28.255Z,52.80
2017-07-31T12:37:04.620Z,55.80
2017-07-31T12:39:44.818Z,54.40
2017-07-31T12:42:20.872Z,54.50
2017-07-31T12:44:58.259Z,56.50
2017-07-31T12:47:35.856Z,53.20
2017-07-31T12:50:10.610Z,53.10
2017-07-31T12:52:45.595Z,52.30
2017-07-31T13:01:01.619Z,53.90
2017-07-31T13:03:37.142Z,52.60
2017-07-31T13:06:13.138Z,53.30
2017-07-31T13:08:48.248Z,52.30
2017-07-31T13:11:24.363Z,47.90
2017-07-31T13:14:01.082Z,50.50
2017-07-31T13:16:35.315Z,51.60
2017-07-31T13:19:09.489Z,45.70
2017-07-31T13:21:43.791Z,47.10
2017-07-31T13:24:20.810Z,47.80
2017-07-31T13:26:56.269Z,47.80
2017-07-31T13:29:31.507Z,47.00
2017-07-31T13:32:06.560Z,48.90
2017-07-31T13:34:43.226Z,48.00
2017-07-31T13:37:18.791Z,44.20
2017-07-31T13:39:53.562Z,45.10
2017-07-31T13:42:27.562Z,43.30
2017-07-31T13:45:06.563Z,45.00
2017-07-31T13:47:45.424Z,47.70
2017-07-31T13:50:19.739Z,47.10
2017-07-31T13:52:54.678Z,47.10
2017-07-31T13:55:29.987Z,44.60
2017-07-31T13:58:04.119Z,45.70
2017-07-31T14:00:38.855Z,47.80
2017-07-31T14:03:12.809Z,49.00
2017-07-31T14:05:48.450Z,48.00
2017-07-31T14:08:23.939Z,48.80
2017-07-31T14:10:58.001Z,48.80
2017-07-31T14:13:31.841Z,46.70
2017-07-31T14:16:05.809Z,48.60
2017-07-31T14:18:39.815Z,46.80
2017-07-31T14:21:14.387Z,48.90
2017-07-31T14:23:48.890Z,47.20
2017-07-31T14:26:23.731Z,47.40
2017-07-31T14:28:59.387Z,48.00
2017-07-31T14:31:34.860Z,47.50
2017-07-31T14:34:09.440Z,47.40
2017-07-31T14:36:44.341Z,47.30
2017-07-31T14:39:18.531Z,46.40
2017-07-31T14:41:52.673Z,46.70
2017-07-31T14:44:28.286Z,43.30
2017-07-31T14:47:03.237Z,43.20
2017-07-31T14:49:37.106Z,47.20
2017-07-31T14:52:11.104Z,46.70
2017-07-31T14:54:45.531Z,47.10
2017-07-31T14:57:19.501Z,46.70
2017-07-31T14:59:54.157Z,45.70
2017-07-31T15:02:28.103Z,46.90
2017-07-31T15:05:02.193Z,45.20
2017-07-31T15:07:36.784Z,46.00
2017-07-31T15:10:11.317Z,46.60
2017-07-31T15:12:45.405Z,46.50
2017-07-31T15:15:19.495Z,47.00
2017-07-31T15:17:53.452Z,46.30
2017-07-31T15:20:27.366Z,46.10
2017-07-31T15:23:01.432Z,47.10
2017-07-31T15:25:35.475Z,47.90
2017-07-31T15:28:09.391Z,48.00
2017-07-31T15:30:45.283Z,46.60
2017-07-31T15:33:19.240Z,46.60
2017-07-31T15:35:53.147Z,47.60
2017-07-31T15:38:27.469Z,48.10
2017-07-31T15:41:01.854Z,47.10
2017-07-31T15:43:36.347Z,47.90
2017-07-31T15:46:11.027Z,47.70
2017-07-31T15:48:45.079Z,47.70
2017-07-31T15:51:19.739Z,47.20
2017-07-31T15:53:54.375Z,47.30
2017-07-31T15:56:28.228Z,46.90
2017-07-31T15:59:02.176Z,47.90
2017-07-31T16:01:36.112Z,47.10
2017-07-31T16:04:09.961Z,47.10
2017-07-31T16:06:44.726Z,47.80
2017-07-31T16:09:18.682Z,47.80
2017-07-31T16:11:52.366Z,47.50
2017-07-31T16:14:26.202Z,48.10
2017-07-31T16:17:00.148Z,47.70
2017-07-31T16:19:33.897Z,47.50
2017-07-31T16:22:07.629Z,47.10
2017-07-31T16:24:41.257Z,48.70
2017-07-31T16:27:15.280Z,48.10
2017-07-31T16:29:49.233Z,48.40
2017-07-31T16:32:22.994Z,48.40
2017-07-31T16:34:56.855Z,49.00
2017-07-31T16:37:35.594Z,49.40
2017-07-31T16:40:21.143Z,50.00
2017-07-31T16:43:20.938Z,51.30
2017-07-31T16:46:16.966Z,53.10
2017-07-31T16:49:02.409Z,53.70
2017-07-31T16:51:36.761Z,53.00
2017-07-31T16:54:10.785Z,53.00
2017-07-31T16:56:44.550Z,53.10
2017-07-31T16:59:18.637Z,53.50
2017-07-31T17:01:52.488Z,53.90
2017-07-31T17:04:27.253Z,53.70
2017-07-31T17:07:01.361Z,53.70
2017-07-31T17:09:35.160Z,52.80
2017-07-31T17:12:09.218Z,52.60
2017-07-31T17:14:43.024Z,52.40
2017-07-31T17:17:17.680Z,52.90
2017-07-31T17:19:51.607Z,53.90
2017-07-31T17:22:26.376Z,54.60
2017-07-31T17:25:00.889Z,55.90
2017-07-31T17:27:34.770Z,55.90
2017-07-31T17:30:09.307Z,55.20
2017-07-31T17:32:43.955Z,55.40
2017-07-31T17:35:17.740Z,55.40
2017-07-31T17:37:52.364Z,56.50
2017-07-31T17:40:26.370Z,56.50
2017-07-31T17:43:00.693Z,56.70
2017-07-31T17:45:34.802Z,57.20
2017-07-31T17:48:08.903Z,57.70
2017-07-31T17:50:42.734Z,57.70
2017-07-31T17:53:16.510Z,57.70
2017-07-31T17:55:51.387Z,58.10
2017-07-31T17:58:25.959Z,57.20
2017-07-31T18:00:59.915Z,57.20
2017-07-31T18:03:34.234Z,58.60
2017-07-31T18:06:09.249Z,58.50
2017-07-31T18:08:46.223Z,58.10
2017-07-31T18:11:20.080Z,57.80
2017-07-31T18:13:57.966Z,60.20
2017-07-31T18:16:33.593Z,59.70
2017-07-31T18:19:08.232Z,56.90
2017-07-31T18:21:43.427Z,57.70
2017-07-31T18:24:17.709Z,58.00
2017-07-31T18:26:52.480Z,57.80
2017-07-31T18:29:27.598Z,57.20
2017-07-31T18:32:01.755Z,56.60
2017-07-31T18:34:35.782Z,56.70
2017-07-31T18:37:12.373Z,57.60
2017-07-31T18:39:46.031Z,57.00
2017-07-31T18:42:27.616Z,57.40
2017-07-31T18:45:02.763Z,58.30
2017-07-31T18:47:42.172Z,58.20
2017-07-31T18:50:16.779Z,56.40
2017-07-31T18:52:53.384Z,57.70
2017-07-31T18:55:27.493Z,57.60
2017-07-31T18:58:01.751Z,55.10
2017-07-31T19:00:36.134Z,56.50
2017-07-31T19:03:09.897Z,57.60
2017-07-31T19:05:44.955Z,58.50
2017-07-31T19:08:19.018Z,58.10
2017-07-31T19:10:53.607Z,57.30
2017-07-31T19:16:26.318Z,58.30
2017-07-31T19:21:58.807Z,58.20
2017-07-31T19:24:34.199Z,58.50
2017-07-31T19:27:08.736Z,58.90
2017-07-31T19:29:43.599Z,58.80
2017-07-31T19:32:17.649Z,58.80
2017-07-31T19:34:51.570Z,60.00
2017-07-31T19:37:26.466Z,60.00
2017-07-31T19:40:00.273Z,59.90
2017-07-31T19:42:34.345Z,59.30
2017-07-31T19:45:09.161Z,59.80
2017-07-31T19:47:43.237Z,59.70
2017-07-31T19:50:17.043Z,59.90
2017-07-31T19:52:51.119Z,60.30
2017-07-31T19:55:25.454Z,59.50
2017-07-31T19:57:59.793Z,59.80
2017-07-31T20:00:34.806Z,61.90
2017-07-31T20:03:08.863Z,61.90
2017-07-31T20:05:43.782Z,67.50
2017-07-31T20:08:18.602Z,67.50
2017-07-31T20:10:53.866Z,66.80
2017-07-31T20:13:28.153Z,65.80
2017-07-31T20:16:02.320Z,65.40
2017-07-31T20:18:36.239Z,65.00
2017-07-31T20:21:11.887Z,65.10
2017-07-31T20:23:46.896Z,65.50
2017-07-31T20:26:21.395Z,65.00
2017-07-31T20:28:55.825Z,66.00
2017-07-31T20:31:29.845Z,66.00
2017-07-31T20:34:05.540Z,68.40
2017-07-31T20:36:39.476Z,68.40
2017-07-31T20:39:14.036Z,67.80
2017-07-31T20:41:48.733Z,67.80
2017-07-31T20:44:23.341Z,67.80
2017-07-31T20:46:58.391Z,67.80
2017-07-31T20:49:32.825Z,68.00
2017-07-31T20:52:06.524Z,68.20
2017-07-31T20:54:41.110Z,71.20
2017-07-31T20:57:15.663Z,71.20
2017-07-31T20:59:49.613Z,70.50
2017-07-31T21:02:23.574Z,71.10
2017-07-31T21:04:57.650Z,70.50
2017-07-31T21:07:54.857Z,70.10
2017-07-31T21:10:29.297Z,71.60
2017-07-31T21:13:03.959Z,71.40
2017-07-31T21:15:37.805Z,74.70
2017-07-31T21:18:12.227Z,73.50
2017-07-31T21:20:46.266Z,72.60
2017-07-31T21:23:21.640Z,72.80
2017-07-31T21:25:56.711Z,73.70
2017-07-31T21:28:31.857Z,73.60
2017-07-31T21:31:05.688Z,74.20
2017-07-31T21:33:39.706Z,74.60
2017-07-31T21:36:13.846Z,74.40
2017-07-31T21:38:47.629Z,74.00
2017-07-31T21:41:22.634Z,74.20
2017-07-31T21:43:56.834Z,73.20
2017-07-31T21:46:30.735Z,73.00
2017-07-31T21:49:05.322Z,72.50
2017-07-31T21:51:40.092Z,72.60
2017-07-31T21:54:14.686Z,72.50
2017-07-31T21:56:48.810Z,73.80
2017-07-31T21:59:22.699Z,76.20
2017-07-31T22:01:56.899Z,77.10
2017-07-31T22:04:30.749Z,75.80
2017-07-31T22:07:05.217Z,77.50
2017-07-31T22:09:39.250Z,77.40
2017-07-31T22:12:15.967Z,76.80
2017-07-31T22:14:49.995Z,76.40
2017-07-31T22:17:29.563Z,75.30
2017-07-31T22:20:03.357Z,75.70
2017-07-31T22:22:37.327Z,75.20
2017-07-31T22:25:11.402Z,75.50
2017-07-31T22:27:45.569Z,74.60
2017-07-31T22:30:19.478Z,75.00
2017-07-31T22:32:54.269Z,74.80
2017-07-31T22:35:28.336Z,74.70
2017-07-31T22:38:02.721Z,75.00
2017-07-31T22:40:38.376Z,75.70
2017-07-31T22:43:12.287Z,76.30
2017-07-31T22:45:46.219Z,76.50
2017-07-31T22:48:20.074Z,76.40
2017-07-31T22:50:56.131Z,75.20
2017-07-31T22:53:30.910Z,75.40
2017-07-31T22:56:05.698Z,75.30
2017-07-31T22:58:39.615Z,75.20
2017-07-31T23:01:13.544Z,75.20
2017-07-31T23:03:48.112Z,75.90
2017-07-31T23:06:21.930Z,75.80
2017-07-31T23:08:56.701Z,76.30
2017-07-31T23:11:31.295Z,77.10
2017-07-31T23:14:05.352Z,77.00
2017-07-31T23:16:39.733Z,76.30
2017-07-31T23:19:15.179Z,76.50
2017-07-31T23:21:50.055Z,76.50
2017-07-31T23:24:23.990Z,76.60
2017-07-31T23:26:57.881Z,76.40
2017-07-31T23:29:31.983Z,76.10
2017-07-31T23:32:05.798Z,75.90
2017-07-31T23:34:39.843Z,75.70
2017-07-31T23:37:13.687Z,76.10
2017-07-31T23:39:47.658Z,76.00
2017-07-31T23:42:21.389Z,76.20
2017-07-31T23:44:55.235Z,75.90
2017-07-31T23:47:29.361Z,76.30
2017-07-31T23:50:04.715Z,77.70
2017-07-31T23:52:41.791Z,77.70
2017-07-31T23:55:17.444Z,77.60
2017-07-31T23:57:52.191Z,77.60
